sensor_id;sensor_type;location;lat;lon;timestamp;P1;durP1;ratioP1;P2;durP2;ratioP2
35675;SDS011;21790;42.668;23.298;2022-11-20T00:01:11;4.65;;;1.42;;
35675;SDS011;21790;42.668;23.298;2022-11-20T00:03:45;11.60;;;1.60;;
35675;SDS011;21790;42.668;23.298;2022-11-20T00:06:12;3.35;;;1.02;;
35675;SDS011;21790;42.668;23.298;2022-11-20T00:08:41;2.65;;;0.98;;
35675;SDS011;21790;42.668;23.298;2022-11-20T00:11:08;3.35;;;0.70;;
35675;SDS011;21790;42.668;23.298;2022-11-20T00:13:38;2.03;;;0.88;;
35675;SDS011;21790;42.668;23.298;2022-11-20T00:16:05;3.20;;;1.35;;
35675;SDS011;21790;42.668;23.298;2022-11-20T00:18:32;4.30;;;1.40;;
35675;SDS011;21790;42.668;23.298;2022-11-20T00:21:13;4.45;;;0.85;;
35675;SDS011;21790;42.668;23.298;2022-11-20T00:23:40;4.90;;;1.08;;
35675;SDS011;21790;42.668;23.298;2022-11-20T00:26:07;2.25;;;0.95;;
35675;SDS011;21790;42.668;23.298;2022-11-20T00:28:35;1.23;;;0.80;;
35675;SDS011;21790;42.668;23.298;2022-11-20T00:31:04;0.70;;;0.70;;
35675;SDS011;21790;42.668;23.298;2022-11-20T00:33:30;1.83;;;0.88;;
35675;SDS011;21790;42.668;23.298;2022-11-20T00:36:00;6.15;;;1.08;;
35675;SDS011;21790;42.668;23.298;2022-11-20T00:38:32;3.65;;;0.57;;
35675;SDS011;21790;42.668;23.298;2022-11-20T00:40:59;3.40;;;1.02;;
35675;SDS011;21790;42.668;23.298;2022-11-20T00:43:26;2.95;;;0.70;;
35675;SDS011;21790;42.668;23.298;2022-11-20T00:45:58;3.65;;;1.20;;
35675;SDS011;21790;42.668;23.298;2022-11-20T00:48:25;4.32;;;0.80;;
35675;SDS011;21790;42.668;23.298;2022-11-20T00:50:51;5.03;;;1.00;;
35675;SDS011;21790;42.668;23.298;2022-11-20T00:53:17;5.53;;;0.85;;
35675;SDS011;21790;42.668;23.298;2022-11-20T00:55:43;1.63;;;0.60;;
35675;SDS011;21790;42.668;23.298;2022-11-20T00:58:31;1.92;;;0.90;;
35675;SDS011;21790;42.668;23.298;2022-11-20T01:00:59;0.87;;;0.73;;
35675;SDS011;21790;42.668;23.298;2022-11-20T01:03:33;2.30;;;0.70;;
35675;SDS011;21790;42.668;23.298;2022-11-20T01:06:01;4.88;;;0.77;;
35675;SDS011;21790;42.668;23.298;2022-11-20T01:08:31;2.40;;;0.70;;
35675;SDS011;21790;42.668;23.298;2022-11-20T01:10:58;3.83;;;0.82;;
35675;SDS011;21790;42.668;23.298;2022-11-20T01:13:28;1.67;;;1.02;;
35675;SDS011;21790;42.668;23.298;2022-11-20T01:16:07;2.03;;;0.80;;
35675;SDS011;21790;42.668;23.298;2022-11-20T01:18:39;1.58;;;0.80;;
35675;SDS011;21790;42.668;23.298;2022-11-20T01:21:07;1.60;;;0.63;;
35675;SDS011;21790;42.668;23.298;2022-11-20T01:23:35;3.13;;;0.90;;
35675;SDS011;21790;42.668;23.298;2022-11-20T01:26:03;1.98;;;0.80;;
35675;SDS011;21790;42.668;23.298;2022-11-20T01:28:30;2.47;;;0.65;;
35675;SDS011;21790;42.668;23.298;2022-11-20T01:30:56;0.90;;;0.70;;
35675;SDS011;21790;42.668;23.298;2022-11-20T01:33:22;2.10;;;0.80;;
35675;SDS011;21790;42.668;23.298;2022-11-20T01:35:48;4.32;;;0.68;;
35675;SDS011;21790;42.668;23.298;2022-11-20T01:38:14;4.80;;;0.90;;
35675;SDS011;21790;42.668;23.298;2022-11-20T01:40:40;1.90;;;0.80;;
35675;SDS011;21790;42.668;23.298;2022-11-20T01:43:12;1.55;;;0.90;;
35675;SDS011;21790;42.668;23.298;2022-11-20T01:48:42;2.40;;;0.77;;
35675;SDS011;21790;42.668;23.298;2022-11-20T01:54:25;1.65;;;0.70;;
35675;SDS011;21790;42.668;23.298;2022-11-20T01:56:59;2.67;;;0.50;;
35675;SDS011;21790;42.668;23.298;2022-11-20T01:59:26;2.83;;;0.68;;
35675;SDS011;21790;42.668;23.298;2022-11-20T02:01:54;1.58;;;0.77;;
35675;SDS011;21790;42.668;23.298;2022-11-20T02:04:20;1.85;;;1.10;;
35675;SDS011;21790;42.668;23.298;2022-11-20T02:06:49;4.28;;;0.80;;
35675;SDS011;21790;42.668;23.298;2022-11-20T02:09:20;1.77;;;0.80;;
35675;SDS011;21790;42.668;23.298;2022-11-20T02:11:45;4.10;;;0.77;;
35675;SDS011;21790;42.668;23.298;2022-11-20T02:14:11;2.50;;;0.70;;
35675;SDS011;21790;42.668;23.298;2022-11-20T02:16:37;0.98;;;0.43;;
35675;SDS011;21790;42.668;23.298;2022-11-20T02:19:09;2.20;;;0.80;;
35675;SDS011;21790;42.668;23.298;2022-11-20T02:21:52;1.52;;;0.60;;
35675;SDS011;21790;42.668;23.298;2022-11-20T02:24:27;1.33;;;0.80;;
35675;SDS011;21790;42.668;23.298;2022-11-20T02:27:02;1.00;;;0.85;;
35675;SDS011;21790;42.668;23.298;2022-11-20T02:30:04;2.22;;;0.40;;
35675;SDS011;21790;42.668;23.298;2022-11-20T02:32:27;0.55;;;0.50;;
35675;SDS011;21790;42.668;23.298;2022-11-20T02:34:57;1.00;;;0.90;;
35675;SDS011;21790;42.668;23.298;2022-11-20T02:37:32;4.20;;;1.08;;
35675;SDS011;21790;42.668;23.298;2022-11-20T02:39:59;2.42;;;0.82;;
35675;SDS011;21790;42.668;23.298;2022-11-20T02:42:25;2.22;;;0.70;;
35675;SDS011;21790;42.668;23.298;2022-11-20T02:44:50;2.88;;;0.95;;
35675;SDS011;21790;42.668;23.298;2022-11-20T02:47:16;1.20;;;0.88;;
35675;SDS011;21790;42.668;23.298;2022-11-20T02:49:42;3.33;;;1.00;;
35675;SDS011;21790;42.668;23.298;2022-11-20T02:52:08;8.32;;;0.80;;
35675;SDS011;21790;42.668;23.298;2022-11-20T02:54:33;0.70;;;0.70;;
35675;SDS011;21790;42.668;23.298;2022-11-20T02:56:59;5.72;;;0.82;;
35675;SDS011;21790;42.668;23.298;2022-11-20T02:59:24;5.55;;;1.00;;
35675;SDS011;21790;42.668;23.298;2022-11-20T03:01:50;2.53;;;0.88;;
35675;SDS011;21790;42.668;23.298;2022-11-20T03:04:15;4.38;;;0.80;;
35675;SDS011;21790;42.668;23.298;2022-11-20T03:06:41;3.70;;;0.70;;
35675;SDS011;21790;42.668;23.298;2022-11-20T03:09:07;4.00;;;0.90;;
35675;SDS011;21790;42.668;23.298;2022-11-20T03:11:32;2.33;;;0.90;;
35675;SDS011;21790;42.668;23.298;2022-11-20T03:14:01;5.38;;;1.15;;
35675;SDS011;21790;42.668;23.298;2022-11-20T03:16:27;4.75;;;1.20;;
35675;SDS011;21790;42.668;23.298;2022-11-20T03:18:52;5.18;;;1.10;;
35675;SDS011;21790;42.668;23.298;2022-11-20T03:21:18;5.63;;;1.05;;
35675;SDS011;21790;42.668;23.298;2022-11-20T03:23:44;7.38;;;1.10;;
35675;SDS011;21790;42.668;23.298;2022-11-20T03:28:49;1.60;;;0.80;;
35675;SDS011;21790;42.668;23.298;2022-11-20T03:31:17;0.80;;;0.80;;
35675;SDS011;21790;42.668;23.298;2022-11-20T03:33:44;4.18;;;1.67;;
35675;SDS011;21790;42.668;23.298;2022-11-20T03:36:11;0.90;;;0.60;;
35675;SDS011;21790;42.668;23.298;2022-11-20T03:38:37;3.33;;;0.95;;
35675;SDS011;21790;42.668;23.298;2022-11-20T03:41:05;1.40;;;0.85;;
35675;SDS011;21790;42.668;23.298;2022-11-20T03:43:32;2.17;;;0.75;;
35675;SDS011;21790;42.668;23.298;2022-11-20T03:45:59;0.95;;;0.50;;
35675;SDS011;21790;42.668;23.298;2022-11-20T03:48:24;3.30;;;1.08;;
35675;SDS011;21790;42.668;23.298;2022-11-20T03:50:50;2.03;;;0.90;;
35675;SDS011;21790;42.668;23.298;2022-11-20T03:53:17;2.03;;;0.70;;
35675;SDS011;21790;42.668;23.298;2022-11-20T03:55:42;2.92;;;1.15;;
35675;SDS011;21790;42.668;23.298;2022-11-20T03:58:08;4.00;;;0.77;;
35675;SDS011;21790;42.668;23.298;2022-11-20T04:00:34;4.38;;;0.73;;
35675;SDS011;21790;42.668;23.298;2022-11-20T04:03:01;1.77;;;0.70;;
35675;SDS011;21790;42.668;23.298;2022-11-20T04:05:27;3.60;;;0.90;;
35675;SDS011;21790;42.668;23.298;2022-11-20T04:07:53;2.33;;;0.75;;
35675;SDS011;21790;42.668;23.298;2022-11-20T04:10:18;2.55;;;0.60;;
35675;SDS011;21790;42.668;23.298;2022-11-20T04:12:44;2.05;;;0.95;;
35675;SDS011;21790;42.668;23.298;2022-11-20T04:15:10;2.88;;;1.02;;
35675;SDS011;21790;42.668;23.298;2022-11-20T04:17:35;2.47;;;1.27;;
35675;SDS011;21790;42.668;23.298;2022-11-20T04:20:00;4.32;;;0.90;;
35675;SDS011;21790;42.668;23.298;2022-11-20T04:22:27;3.60;;;0.98;;
35675;SDS011;21790;42.668;23.298;2022-11-20T04:24:52;2.50;;;0.77;;
35675;SDS011;21790;42.668;23.298;2022-11-20T04:27:17;5.10;;;0.80;;
35675;SDS011;21790;42.668;23.298;2022-11-20T04:29:43;1.48;;;0.95;;
35675;SDS011;21790;42.668;23.298;2022-11-20T04:32:08;3.50;;;0.70;;
35675;SDS011;21790;42.668;23.298;2022-11-20T04:34:34;4.13;;;0.88;;
35675;SDS011;21790;42.668;23.298;2022-11-20T04:37:00;4.10;;;0.80;;
35675;SDS011;21790;42.668;23.298;2022-11-20T04:39:26;3.92;;;0.80;;
35675;SDS011;21790;42.668;23.298;2022-11-20T04:41:51;1.52;;;0.80;;
35675;SDS011;21790;42.668;23.298;2022-11-20T04:44:36;4.50;;;0.60;;
35675;SDS011;21790;42.668;23.298;2022-11-20T04:47:02;4.35;;;0.77;;
35675;SDS011;21790;42.668;23.298;2022-11-20T04:49:28;0.90;;;0.60;;
35675;SDS011;21790;42.668;23.298;2022-11-20T04:51:53;2.35;;;0.82;;
35675;SDS011;21790;42.668;23.298;2022-11-20T04:54:19;2.40;;;0.95;;
35675;SDS011;21790;42.668;23.298;2022-11-20T04:56:47;1.90;;;0.70;;
35675;SDS011;21790;42.668;23.298;2022-11-20T04:59:12;4.63;;;0.88;;
35675;SDS011;21790;42.668;23.298;2022-11-20T05:01:38;2.25;;;0.63;;
35675;SDS011;21790;42.668;23.298;2022-11-20T05:04:04;3.50;;;0.95;;
35675;SDS011;21790;42.668;23.298;2022-11-20T05:06:30;1.88;;;0.73;;
35675;SDS011;21790;42.668;23.298;2022-11-20T05:08:56;1.23;;;0.73;;
35675;SDS011;21790;42.668;23.298;2022-11-20T05:11:22;5.30;;;1.00;;
35675;SDS011;21790;42.668;23.298;2022-11-20T05:13:48;1.30;;;0.63;;
35675;SDS011;21790;42.668;23.298;2022-11-20T05:16:18;5.22;;;1.15;;
35675;SDS011;21790;42.668;23.298;2022-11-20T05:18:46;2.28;;;0.90;;
35675;SDS011;21790;42.668;23.298;2022-11-20T05:21:11;1.23;;;0.55;;
35675;SDS011;21790;42.668;23.298;2022-11-20T05:23:37;5.55;;;0.82;;
35675;SDS011;21790;42.668;23.298;2022-11-20T05:26:04;3.05;;;0.90;;
35675;SDS011;21790;42.668;23.298;2022-11-20T05:28:30;0.98;;;0.70;;
35675;SDS011;21790;42.668;23.298;2022-11-20T05:31:07;1.02;;;0.60;;
35675;SDS011;21790;42.668;23.298;2022-11-20T05:33:35;0.95;;;0.50;;
35675;SDS011;21790;42.668;23.298;2022-11-20T05:36:01;1.77;;;0.57;;
35675;SDS011;21790;42.668;23.298;2022-11-20T05:38:28;5.70;;;1.08;;
35675;SDS011;21790;42.668;23.298;2022-11-20T05:40:53;2.33;;;0.90;;
35675;SDS011;21790;42.668;23.298;2022-11-20T05:43:19;1.63;;;0.88;;
35675;SDS011;21790;42.668;23.298;2022-11-20T05:45:51;1.05;;;0.60;;
35675;SDS011;21790;42.668;23.298;2022-11-20T05:48:17;5.40;;;1.30;;
35675;SDS011;21790;42.668;23.298;2022-11-20T05:50:43;2.70;;;0.65;;
35675;SDS011;21790;42.668;23.298;2022-11-20T05:53:08;2.03;;;0.60;;
35675;SDS011;21790;42.668;23.298;2022-11-20T05:55:34;3.28;;;0.90;;
35675;SDS011;21790;42.668;23.298;2022-11-20T05:57:59;2.85;;;0.50;;
35675;SDS011;21790;42.668;23.298;2022-11-20T06:00:25;2.05;;;0.68;;
35675;SDS011;21790;42.668;23.298;2022-11-20T06:02:50;1.58;;;0.80;;
35675;SDS011;21790;42.668;23.298;2022-11-20T06:05:15;4.32;;;0.70;;
35675;SDS011;21790;42.668;23.298;2022-11-20T06:07:41;3.35;;;0.55;;
35675;SDS011;21790;42.668;23.298;2022-11-20T06:10:06;1.27;;;0.63;;
35675;SDS011;21790;42.668;23.298;2022-11-20T06:12:32;1.00;;;0.50;;
35675;SDS011;21790;42.668;23.298;2022-11-20T06:14:58;7.65;;;0.98;;
35675;SDS011;21790;42.668;23.298;2022-11-20T06:17:24;3.63;;;0.70;;
35675;SDS011;21790;42.668;23.298;2022-11-20T06:19:49;2.45;;;0.77;;
35675;SDS011;21790;42.668;23.298;2022-11-20T06:22:14;2.63;;;0.77;;
35675;SDS011;21790;42.668;23.298;2022-11-20T06:24:40;1.55;;;0.70;;
35675;SDS011;21790;42.668;23.298;2022-11-20T06:27:06;2.30;;;0.90;;
35675;SDS011;21790;42.668;23.298;2022-11-20T06:29:31;4.20;;;1.02;;
35675;SDS011;21790;42.668;23.298;2022-11-20T06:31:57;2.70;;;0.73;;
35675;SDS011;21790;42.668;23.298;2022-11-20T06:34:22;4.45;;;0.60;;
35675;SDS011;21790;42.668;23.298;2022-11-20T06:36:48;0.85;;;0.73;;
35675;SDS011;21790;42.668;23.298;2022-11-20T06:39:13;5.68;;;1.52;;
35675;SDS011;21790;42.668;23.298;2022-11-20T06:41:39;2.67;;;1.13;;
35675;SDS011;21790;42.668;23.298;2022-11-20T06:44:04;10.32;;;1.80;;
35675;SDS011;21790;42.668;23.298;2022-11-20T06:46:30;7.40;;;0.70;;
35675;SDS011;21790;42.668;23.298;2022-11-20T06:48:56;7.38;;;0.70;;
35675;SDS011;21790;42.668;23.298;2022-11-20T06:51:23;0.90;;;0.70;;
35675;SDS011;21790;42.668;23.298;2022-11-20T06:53:48;1.85;;;0.50;;
35675;SDS011;21790;42.668;23.298;2022-11-20T06:56:14;1.58;;;0.50;;
35675;SDS011;21790;42.668;23.298;2022-11-20T06:58:39;1.95;;;0.70;;
35675;SDS011;21790;42.668;23.298;2022-11-20T07:01:06;2.80;;;0.52;;
35675;SDS011;21790;42.668;23.298;2022-11-20T07:03:34;3.70;;;0.85;;
35675;SDS011;21790;42.668;23.298;2022-11-20T07:06:00;3.92;;;1.60;;
35675;SDS011;21790;42.668;23.298;2022-11-20T07:08:26;0.88;;;0.50;;
35675;SDS011;21790;42.668;23.298;2022-11-20T07:10:51;2.28;;;0.82;;
35675;SDS011;21790;42.668;23.298;2022-11-20T07:13:17;4.07;;;1.00;;
35675;SDS011;21790;42.668;23.298;2022-11-20T07:15:42;3.55;;;0.52;;
35675;SDS011;21790;42.668;23.298;2022-11-20T07:18:08;2.80;;;0.80;;
35675;SDS011;21790;42.668;23.298;2022-11-20T07:20:33;9.05;;;1.05;;
35675;SDS011;21790;42.668;23.298;2022-11-20T07:22:59;2.33;;;0.70;;
35675;SDS011;21790;42.668;23.298;2022-11-20T07:25:25;1.80;;;0.93;;
35675;SDS011;21790;42.668;23.298;2022-11-20T07:27:51;3.30;;;0.80;;
35675;SDS011;21790;42.668;23.298;2022-11-20T07:30:17;1.67;;;0.77;;
35675;SDS011;21790;42.668;23.298;2022-11-20T07:32:47;5.32;;;0.75;;
35675;SDS011;21790;42.668;23.298;2022-11-20T07:35:15;1.15;;;0.50;;
35675;SDS011;21790;42.668;23.298;2022-11-20T07:37:41;3.20;;;1.33;;
35675;SDS011;21790;42.668;23.298;2022-11-20T07:40:06;2.58;;;0.90;;
35675;SDS011;21790;42.668;23.298;2022-11-20T07:42:32;2.65;;;0.55;;
35675;SDS011;21790;42.668;23.298;2022-11-20T07:44:57;3.80;;;0.70;;
35675;SDS011;21790;42.668;23.298;2022-11-20T07:47:22;0.98;;;0.55;;
35675;SDS011;21790;42.668;23.298;2022-11-20T07:49:48;1.85;;;0.70;;
35675;SDS011;21790;42.668;23.298;2022-11-20T07:52:13;2.30;;;0.73;;
35675;SDS011;21790;42.668;23.298;2022-11-20T07:54:39;2.90;;;0.80;;
35675;SDS011;21790;42.668;23.298;2022-11-20T07:57:04;6.82;;;1.00;;
35675;SDS011;21790;42.668;23.298;2022-11-20T07:59:29;5.45;;;1.23;;
35675;SDS011;21790;42.668;23.298;2022-11-20T08:01:55;6.97;;;1.35;;
35675;SDS011;21790;42.668;23.298;2022-11-20T08:04:20;2.85;;;1.10;;
35675;SDS011;21790;42.668;23.298;2022-11-20T08:06:46;8.00;;;1.27;;
35675;SDS011;21790;42.668;23.298;2022-11-20T08:09:12;2.28;;;1.13;;
35675;SDS011;21790;42.668;23.298;2022-11-20T08:11:37;2.63;;;1.30;;
35675;SDS011;21790;42.668;23.298;2022-11-20T08:14:21;3.72;;;1.40;;
35675;SDS011;21790;42.668;23.298;2022-11-20T08:16:47;5.28;;;1.20;;
35675;SDS011;21790;42.668;23.298;2022-11-20T08:19:14;5.07;;;1.35;;
35675;SDS011;21790;42.668;23.298;2022-11-20T08:21:42;6.90;;;1.25;;
35675;SDS011;21790;42.668;23.298;2022-11-20T08:24:08;2.88;;;1.05;;
35675;SDS011;21790;42.668;23.298;2022-11-20T08:26:35;3.03;;;1.55;;
35675;SDS011;21790;42.668;23.298;2022-11-20T08:29:02;6.95;;;1.77;;
35675;SDS011;21790;42.668;23.298;2022-11-20T08:31:28;4.28;;;1.27;;
35675;SDS011;21790;42.668;23.298;2022-11-20T08:33:54;3.35;;;1.35;;
35675;SDS011;21790;42.668;23.298;2022-11-20T08:36:20;5.82;;;1.10;;
35675;SDS011;21790;42.668;23.298;2022-11-20T08:38:48;3.63;;;1.02;;
35675;SDS011;21790;42.668;23.298;2022-11-20T08:41:17;6.15;;;1.25;;
35675;SDS011;21790;42.668;23.298;2022-11-20T08:43:49;5.72;;;0.80;;
35675;SDS011;21790;42.668;23.298;2022-11-20T08:46:15;9.18;;;1.60;;
35675;SDS011;21790;42.668;23.298;2022-11-20T08:48:41;5.18;;;0.98;;
35675;SDS011;21790;42.668;23.298;2022-11-20T08:51:06;7.00;;;1.27;;
35675;SDS011;21790;42.668;23.298;2022-11-20T08:53:33;6.05;;;1.25;;
35675;SDS011;21790;42.668;23.298;2022-11-20T08:55:59;3.58;;;1.17;;
35675;SDS011;21790;42.668;23.298;2022-11-20T08:58:25;2.60;;;1.80;;
35675;SDS011;21790;42.668;23.298;2022-11-20T09:00:51;6.32;;;2.05;;
35675;SDS011;21790;42.668;23.298;2022-11-20T09:03:16;5.80;;;1.92;;
35675;SDS011;21790;42.668;23.298;2022-11-20T09:05:42;8.70;;;2.47;;
35675;SDS011;21790;42.668;23.298;2022-11-20T09:08:08;6.40;;;2.25;;
35675;SDS011;21790;42.668;23.298;2022-11-20T09:10:34;8.75;;;1.83;;
35675;SDS011;21790;42.668;23.298;2022-11-20T09:13:00;5.57;;;2.10;;
35675;SDS011;21790;42.668;23.298;2022-11-20T09:15:26;4.47;;;2.47;;
35675;SDS011;21790;42.668;23.298;2022-11-20T09:17:59;8.48;;;2.35;;
35675;SDS011;21790;42.668;23.298;2022-11-20T09:20:26;6.80;;;2.00;;
35675;SDS011;21790;42.668;23.298;2022-11-20T09:22:56;7.20;;;1.90;;
35675;SDS011;21790;42.668;23.298;2022-11-20T09:25:22;7.50;;;1.92;;
35675;SDS011;21790;42.668;23.298;2022-11-20T09:27:47;17.88;;;3.80;;
35675;SDS011;21790;42.668;23.298;2022-11-20T09:30:14;3.47;;;0.90;;
35675;SDS011;21790;42.668;23.298;2022-11-20T09:32:40;3.47;;;1.20;;
35675;SDS011;21790;42.668;23.298;2022-11-20T09:35:05;0.77;;;0.65;;
35675;SDS011;21790;42.668;23.298;2022-11-20T09:37:31;2.47;;;0.75;;
35675;SDS011;21790;42.668;23.298;2022-11-20T09:39:57;2.40;;;1.00;;
35675;SDS011;21790;42.668;23.298;2022-11-20T09:45:23;2.72;;;1.10;;
35675;SDS011;21790;42.668;23.298;2022-11-20T09:53:57;3.60;;;0.82;;
35675;SDS011;21790;42.668;23.298;2022-11-20T09:56:33;2.13;;;1.00;;
35675;SDS011;21790;42.668;23.298;2022-11-20T09:59:02;2.25;;;1.63;;
35675;SDS011;21790;42.668;23.298;2022-11-20T10:01:32;2.38;;;1.38;;
35675;SDS011;21790;42.668;23.298;2022-11-20T10:04:14;5.20;;;1.42;;
35675;SDS011;21790;42.668;23.298;2022-11-20T10:09:34;5.43;;;1.10;;
35675;SDS011;21790;42.668;23.298;2022-11-20T10:18:10;2.78;;;1.80;;
35675;SDS011;21790;42.668;23.298;2022-11-20T10:21:08;11.90;;;1.75;;
35675;SDS011;21790;42.668;23.298;2022-11-20T10:29:25;7.85;;;1.60;;
35675;SDS011;21790;42.668;23.298;2022-11-20T10:32:10;5.07;;;2.05;;
35675;SDS011;21790;42.668;23.298;2022-11-20T10:37:37;4.88;;;2.33;;
35675;SDS011;21790;42.668;23.298;2022-11-20T10:43:00;6.43;;;2.22;;
35675;SDS011;21790;42.668;23.298;2022-11-20T10:48:32;3.50;;;2.20;;
35675;SDS011;21790;42.668;23.298;2022-11-20T10:59:33;10.00;;;3.03;;
35675;SDS011;21790;42.668;23.298;2022-11-20T11:02:19;10.00;;;2.70;;
35675;SDS011;21790;42.668;23.298;2022-11-20T11:04:52;9.40;;;3.17;;
35675;SDS011;21790;42.668;23.298;2022-11-20T11:07:23;16.55;;;3.42;;
35675;SDS011;21790;42.668;23.298;2022-11-20T11:09:55;18.95;;;3.15;;
35675;SDS011;21790;42.668;23.298;2022-11-20T11:12:22;7.65;;;1.80;;
35675;SDS011;21790;42.668;23.298;2022-11-20T11:14:54;5.78;;;2.17;;
35675;SDS011;21790;42.668;23.298;2022-11-20T11:17:28;3.33;;;1.35;;
35675;SDS011;21790;42.668;23.298;2022-11-20T11:22:30;8.00;;;1.08;;
35675;SDS011;21790;42.668;23.298;2022-11-20T11:24:58;0.80;;;0.70;;
35675;SDS011;21790;42.668;23.298;2022-11-20T11:27:23;2.88;;;0.60;;
35675;SDS011;21790;42.668;23.298;2022-11-20T11:29:49;0.88;;;0.60;;
35675;SDS011;21790;42.668;23.298;2022-11-20T11:32:17;0.70;;;0.60;;
35675;SDS011;21790;42.668;23.298;2022-11-20T11:34:43;1.92;;;0.88;;
35675;SDS011;21790;42.668;23.298;2022-11-20T11:37:10;1.63;;;0.73;;
35675;SDS011;21790;42.668;23.298;2022-11-20T11:39:42;4.35;;;0.80;;
35675;SDS011;21790;42.668;23.298;2022-11-20T11:42:11;2.45;;;0.82;;
35675;SDS011;21790;42.668;23.298;2022-11-20T11:44:43;0.90;;;0.60;;
35675;SDS011;21790;42.668;23.298;2022-11-20T11:47:51;7.85;;;0.90;;
35675;SDS011;21790;42.668;23.298;2022-11-20T11:52:46;1.65;;;0.80;;
35675;SDS011;21790;42.668;23.298;2022-11-20T11:58:11;8.00;;;1.23;;
35675;SDS011;21790;42.668;23.298;2022-11-20T12:00:56;8.93;;;0.80;;
35675;SDS011;21790;42.668;23.298;2022-11-20T12:03:39;2.33;;;0.68;;
35675;SDS011;21790;42.668;23.298;2022-11-20T12:06:14;6.03;;;0.60;;
35675;SDS011;21790;42.668;23.298;2022-11-20T12:09:24;2.92;;;0.85;;
35675;SDS011;21790;42.668;23.298;2022-11-20T12:11:43;0.85;;;0.60;;
35675;SDS011;21790;42.668;23.298;2022-11-20T12:16:44;1.58;;;0.50;;
35675;SDS011;21790;42.668;23.298;2022-11-20T12:19:12;1.63;;;0.70;;
35675;SDS011;21790;42.668;23.298;2022-11-20T12:38:08;3.45;;;0.90;;
35675;SDS011;21790;42.668;23.298;2022-11-20T12:43:38;1.92;;;1.10;;
35675;SDS011;21790;42.668;23.298;2022-11-20T12:46:41;1.93;;;0.70;;
35675;SDS011;21790;42.668;23.298;2022-11-20T12:49:28;4.70;;;0.80;;
35675;SDS011;21790;42.668;23.298;2022-11-20T12:52:29;3.42;;;0.80;;
35675;SDS011;21790;42.668;23.298;2022-11-20T12:55:25;2.30;;;0.93;;
35675;SDS011;21790;42.668;23.298;2022-11-20T13:00:56;7.60;;;1.23;;
35675;SDS011;21790;42.668;23.298;2022-11-20T13:03:40;4.57;;;1.58;;
35675;SDS011;21790;42.668;23.298;2022-11-20T13:06:18;6.03;;;1.30;;
35675;SDS011;21790;42.668;23.298;2022-11-20T13:08:49;6.30;;;1.80;;
35675;SDS011;21790;42.668;23.298;2022-11-20T13:12:05;5.10;;;2.05;;
35675;SDS011;21790;42.668;23.298;2022-11-20T13:19:41;8.73;;;2.90;;
35675;SDS011;21790;42.668;23.298;2022-11-20T13:22:27;3.97;;;1.88;;
35675;SDS011;21790;42.668;23.298;2022-11-20T13:25:30;5.30;;;2.33;;
35675;SDS011;21790;42.668;23.298;2022-11-20T13:28:42;7.97;;;2.25;;
35675;SDS011;21790;42.668;23.298;2022-11-20T13:30:52;7.75;;;2.15;;
35675;SDS011;21790;42.668;23.298;2022-11-20T13:33:29;7.60;;;3.00;;
35675;SDS011;21790;42.668;23.298;2022-11-20T13:36:01;9.70;;;3.28;;
35675;SDS011;21790;42.668;23.298;2022-11-20T13:38:39;6.90;;;3.58;;
35675;SDS011;21790;42.668;23.298;2022-11-20T13:41:08;16.20;;;3.65;;
35675;SDS011;21790;42.668;23.298;2022-11-20T13:46:46;5.30;;;2.95;;
35675;SDS011;21790;42.668;23.298;2022-11-20T13:49:24;7.63;;;3.42;;
35675;SDS011;21790;42.668;23.298;2022-11-20T13:54:49;8.20;;;3.10;;
35675;SDS011;21790;42.668;23.298;2022-11-20T14:02:41;7.15;;;3.08;;
35675;SDS011;21790;42.668;23.298;2022-11-20T14:05:17;5.75;;;3.20;;
35675;SDS011;21790;42.668;23.298;2022-11-20T14:07:46;15.80;;;6.18;;
35675;SDS011;21790;42.668;23.298;2022-11-20T14:10:22;14.30;;;4.90;;
35675;SDS011;21790;42.668;23.298;2022-11-20T14:12:50;8.60;;;3.70;;
35675;SDS011;21790;42.668;23.298;2022-11-20T14:15:29;9.48;;;3.67;;
35675;SDS011;21790;42.668;23.298;2022-11-20T14:17:56;7.38;;;3.20;;
35675;SDS011;21790;42.668;23.298;2022-11-20T14:20:24;8.45;;;3.45;;
35675;SDS011;21790;42.668;23.298;2022-11-20T14:22:52;9.00;;;3.22;;
35675;SDS011;21790;42.668;23.298;2022-11-20T14:25:21;10.98;;;3.70;;
35675;SDS011;21790;42.668;23.298;2022-11-20T14:27:56;9.70;;;3.28;;
35675;SDS011;21790;42.668;23.298;2022-11-20T14:30:24;8.75;;;1.90;;
35675;SDS011;21790;42.668;23.298;2022-11-20T14:33:01;8.13;;;2.05;;
35675;SDS011;21790;42.668;23.298;2022-11-20T14:35:29;12.00;;;2.08;;
35675;SDS011;21790;42.668;23.298;2022-11-20T14:37:56;4.10;;;2.15;;
35675;SDS011;21790;42.668;23.298;2022-11-20T14:43:01;10.90;;;2.80;;
35675;SDS011;21790;42.668;23.298;2022-11-20T14:45:40;6.80;;;2.10;;
35675;SDS011;21790;42.668;23.298;2022-11-20T14:48:08;8.95;;;2.97;;
35675;SDS011;21790;42.668;23.298;2022-11-20T14:50:35;9.27;;;3.53;;
35675;SDS011;21790;42.668;23.298;2022-11-20T14:53:03;4.13;;;2.03;;
35675;SDS011;21790;42.668;23.298;2022-11-20T14:57:59;4.30;;;2.30;;
35675;SDS011;21790;42.668;23.298;2022-11-20T15:00:26;4.75;;;2.28;;
35675;SDS011;21790;42.668;23.298;2022-11-20T15:02:53;5.93;;;2.67;;
35675;SDS011;21790;42.668;23.298;2022-11-20T15:05:20;7.13;;;2.15;;
35675;SDS011;21790;42.668;23.298;2022-11-20T15:07:49;4.93;;;1.50;;
35675;SDS011;21790;42.668;23.298;2022-11-20T15:10:26;4.25;;;1.35;;
35675;SDS011;21790;42.668;23.298;2022-11-20T15:15:43;14.10;;;7.00;;
35675;SDS011;21790;42.668;23.298;2022-11-20T15:18:12;5.57;;;2.30;;
35675;SDS011;21790;42.668;23.298;2022-11-20T15:20:40;4.72;;;1.45;;
35675;SDS011;21790;42.668;23.298;2022-11-20T15:23:13;1.67;;;1.13;;
35675;SDS011;21790;42.668;23.298;2022-11-20T15:25:46;2.97;;;1.45;;
35675;SDS011;21790;42.668;23.298;2022-11-20T15:30:47;4.75;;;1.85;;
35675;SDS011;21790;42.668;23.298;2022-11-20T15:33:14;6.93;;;1.65;;
35675;SDS011;21790;42.668;23.298;2022-11-20T15:35:43;3.17;;;1.60;;
35675;SDS011;21790;42.668;23.298;2022-11-20T15:38:09;2.15;;;1.50;;
35675;SDS011;21790;42.668;23.298;2022-11-20T15:40:35;3.90;;;1.52;;
35675;SDS011;21790;42.668;23.298;2022-11-20T15:43:00;4.15;;;1.73;;
35675;SDS011;21790;42.668;23.298;2022-11-20T15:48:24;7.63;;;2.20;;
35675;SDS011;21790;42.668;23.298;2022-11-20T15:50:55;7.25;;;2.22;;
35675;SDS011;21790;42.668;23.298;2022-11-20T15:53:23;5.78;;;2.00;;
35675;SDS011;21790;42.668;23.298;2022-11-20T15:55:48;6.10;;;1.52;;
35675;SDS011;21790;42.668;23.298;2022-11-20T15:58:14;4.97;;;1.70;;
35675;SDS011;21790;42.668;23.298;2022-11-20T16:00:41;6.50;;;1.88;;
35675;SDS011;21790;42.668;23.298;2022-11-20T16:03:11;3.70;;;2.10;;
35675;SDS011;21790;42.668;23.298;2022-11-20T16:05:37;5.95;;;2.25;;
35675;SDS011;21790;42.668;23.298;2022-11-20T16:08:03;7.28;;;2.30;;
35675;SDS011;21790;42.668;23.298;2022-11-20T16:10:28;4.63;;;2.38;;
35675;SDS011;21790;42.668;23.298;2022-11-20T16:12:53;3.70;;;2.30;;
35675;SDS011;21790;42.668;23.298;2022-11-20T16:15:38;7.65;;;3.25;;
35675;SDS011;21790;42.668;23.298;2022-11-20T16:18:14;7.40;;;3.05;;
35675;SDS011;21790;42.668;23.298;2022-11-20T16:20:42;4.38;;;2.30;;
35675;SDS011;21790;42.668;23.298;2022-11-20T16:23:19;8.27;;;2.50;;
35675;SDS011;21790;42.668;23.298;2022-11-20T16:25:55;11.57;;;2.72;;
35675;SDS011;21790;42.668;23.298;2022-11-20T16:28:21;6.95;;;3.10;;
35675;SDS011;21790;42.668;23.298;2022-11-20T16:30:47;8.57;;;2.45;;
35675;SDS011;21790;42.668;23.298;2022-11-20T16:33:14;5.78;;;2.30;;
35675;SDS011;21790;42.668;23.298;2022-11-20T16:35:42;5.50;;;1.90;;
35675;SDS011;21790;42.668;23.298;2022-11-20T16:38:10;9.85;;;2.40;;